Time;durP1;ratioP1;P1;durP2;ratioP2;P2;SDS_P1;SDS_P2;PMS_P1;PMS_P2;Temp;Humidity;BMP_temperature;BMP_pressure;BME280_temperature;BME280_humidity;BME280_pressure;Samples;Min_cycle;Max_cycle;Signal;HPM_P1;HPM_P2
2022/05/02 00:02:05;;;;;;;21.17;15.93;;;;;;;;;;5021311;28;20025;-59
2022/05/02 00:04:31;;;;;;;22.13;16.45;;;;;;;;;;5017501;28;20029;-58
2022/05/02 00:06:57;;;;;;;21.83;16.05;;;;;;;;;;5019427;28;20038;-58
2022/05/02 00:09:23;;;;;;;21.35;16.20;;;;;;;;;;5020357;28;20092;-59
2022/05/02 00:11:49;;;;;;;19.95;15.65;;;;;;;;;;5022450;28;20037;-57
2022/05/02 00:14:15;;;;;;;23.83;17.00;;;;;;;;;;5020514;28;20380;-58
2022/05/02 00:16:41;;;;;;;18.98;16.73;;;;;;;;;;5017101;28;20033;-59
2022/05/02 00:19:07;;;;;;;19.05;15.68;;;;;;;;;;5020416;28;20107;-58
2022/05/02 00:21:33;;;;;;;19.27;16.23;;;;;;;;;;5024430;28;20082;-58
2022/05/02 00:23:59;;;;;;;20.77;16.48;;;;;;;;;;5021233;28;20116;-57
2022/05/02 00:26:25;;;;;;;21.25;16.90;;;;;;;;;;5021713;28;20044;-59
2022/05/02 00:28:51;;;;;;;19.77;15.95;;;;;;;;;;5019371;28;20044;-58
2022/05/02 00:31:17;;;;;;;19.50;15.63;;;;;;;;;;5018468;28;20107;-58
2022/05/02 00:33:43;;;;;;;20.25;16.60;;;;;;;;;;5018404;28;20072;-59
2022/05/02 00:36:09;;;;;;;20.20;16.30;;;;;;;;;;5018482;28;20030;-59
2022/05/02 00:38:35;;;;;;;19.90;16.60;;;;;;;;;;5025485;28;20040;-58
2022/05/02 00:41:01;;;;;;;25.85;17.30;;;;;;;;;;5018004;28;20093;-59
2022/05/02 00:43:27;;;;;;;19.20;16.08;;;;;;;;;;5019503;28;20037;-57
2022/05/02 00:45:52;;;;;;;19.60;16.63;;;;;;;;;;5023025;28;20127;-58
2022/05/02 00:48:20;;;;;;;21.80;17.15;;;;;;;;;;5020600;28;20037;-58
2022/05/02 00:50:47;;;;;;;21.00;17.23;;;;;;;;;;5023895;28;20022;-58
2022/05/02 00:53:18;;;;;;;19.88;16.30;;;;;;;;;;5020910;28;20040;-59
2022/05/02 00:55:45;;;;;;;21.90;17.38;;;;;;;;;;5022658;28;20024;-58
2022/05/02 00:58:11;;;;;;;20.00;16.40;;;;;;;;;;5018215;28;20021;-59
2022/05/02 01:00:38;;;;;;;22.15;16.70;;;;;;;;;;5020009;28;20057;-59
2022/05/02 01:03:05;;;;;;;22.33;17.58;;;;;;;;;;5019644;28;20036;-59
2022/05/02 01:05:31;;;;;;;20.83;16.55;;;;;;;;;;5017112;28;20409;-58
2022/05/02 01:07:57;;;;;;;21.75;17.17;;;;;;;;;;5021200;28;20030;-58
2022/05/02 01:10:25;;;;;;;20.88;16.88;;;;;;;;;;5021978;28;20484;-58
2022/05/02 01:12:52;;;;;;;20.95;17.40;;;;;;;;;;5017454;28;20120;-58
2022/05/02 01:15:18;;;;;;;25.77;17.92;;;;;;;;;;5011594;28;20037;-58
2022/05/02 01:17:44;;;;;;;24.55;17.50;;;;;;;;;;5018243;28;20086;-57
2022/05/02 01:20:11;;;;;;;23.27;17.60;;;;;;;;;;5020823;28;20025;-59
2022/05/02 01:22:37;;;;;;;24.35;18.13;;;;;;;;;;5017690;28;20108;-58
2022/05/02 01:25:04;;;;;;;22.92;17.55;;;;;;;;;;5017059;28;20174;-59
2022/05/02 01:27:29;;;;;;;22.55;18.02;;;;;;;;;;5017345;28;20124;-58
2022/05/02 01:29:55;;;;;;;19.42;17.33;;;;;;;;;;5019345;28;20535;-57
2022/05/02 01:32:21;;;;;;;19.92;17.00;;;;;;;;;;5017190;28;20041;-57
2022/05/02 01:34:47;;;;;;;21.45;17.48;;;;;;;;;;5021454;28;20143;-59
2022/05/02 01:37:14;;;;;;;18.98;16.80;;;;;;;;;;5020862;28;20171;-59
2022/05/02 01:39:41;;;;;;;21.85;17.80;;;;;;;;;;5028353;28;20029;-58
2022/05/02 01:42:08;;;;;;;21.02;17.52;;;;;;;;;;5021397;28;21136;-58
2022/05/02 01:44:35;;;;;;;23.17;17.83;;;;;;;;;;5023120;28;20029;-58
2022/05/02 01:47:01;;;;;;;20.50;17.60;;;;;;;;;;5017388;28;20021;-59
2022/05/02 01:49:27;;;;;;;23.35;17.73;;;;;;;;;;5017760;28;20037;-57
2022/05/02 01:51:53;;;;;;;21.33;17.85;;;;;;;;;;5019325;28;20028;-59
2022/05/02 01:54:19;;;;;;;21.55;18.00;;;;;;;;;;5020507;28;20029;-58
2022/05/02 01:56:45;;;;;;;26.20;17.85;;;;;;;;;;5017049;28;20036;-58
2022/05/02 01:59:11;;;;;;;22.52;18.02;;;;;;;;;;5017487;28;20037;-58
2022/05/02 02:01:37;;;;;;;21.60;17.40;;;;;;;;;;5015038;28;20045;-57
2022/05/02 02:06:49;;;;;;;22.70;17.45;;;;;;;;;;5017554;28;20076;-58
2022/05/02 02:09:15;;;;;;;23.75;17.77;;;;;;;;;;5020462;28;20079;-58
2022/05/02 02:11:41;;;;;;;23.98;17.85;;;;;;;;;;5022949;28;20025;-58
2022/05/02 02:14:07;;;;;;;22.02;17.45;;;;;;;;;;5020513;28;20711;-58
2022/05/02 02:16:33;;;;;;;22.75;17.98;;;;;;;;;;5024252;28;20088;-58
2022/05/02 02:18:59;;;;;;;21.85;18.13;;;;;;;;;;5022519;28;20037;-59
2022/05/02 02:21:25;;;;;;;21.95;17.88;;;;;;;;;;5020822;28;20036;-58
2022/05/02 02:23:51;;;;;;;22.55;17.63;;;;;;;;;;5023339;28;20036;-59
2022/05/02 02:26:17;;;;;;;22.30;18.30;;;;;;;;;;5021688;28;20040;-57
2022/05/02 02:28:43;;;;;;;25.20;18.80;;;;;;;;;;5016842;28;20108;-57
2022/05/02 02:31:09;;;;;;;22.20;17.85;;;;;;;;;;5021163;28;20018;-58
2022/05/02 02:33:37;;;;;;;21.98;17.50;;;;;;;;;;5025121;28;20492;-58
2022/05/02 02:36:03;;;;;;;24.05;17.85;;;;;;;;;;5020717;28;20473;-57
2022/05/02 02:38:29;;;;;;;25.08;18.35;;;;;;;;;;5017327;28;21448;-58
2022/05/02 02:40:55;;;;;;;25.67;18.00;;;9.10;99.90;;;;;;5020286;28;21360;-58
2022/05/02 02:43:20;;;;;;;24.20;17.98;;;9.20;99.90;;;;;;5023197;28;20029;-60
2022/05/02 02:45:46;;;;;;;25.17;19.10;;;9.10;99.90;;;;;;5023395;28;20043;-58
2022/05/02 02:48:11;;;;;;;22.23;17.40;;;9.00;99.90;;;;;;5024373;28;20109;-58
2022/05/02 02:50:37;;;;;;;24.77;17.67;;;9.10;99.90;;;;;;5026137;28;20032;-58
2022/05/02 02:53:02;;;;;;;21.52;17.23;;;9.00;99.90;;;;;;5022215;28;20025;-58
2022/05/02 02:55:28;;;;;;;24.60;18.73;;;8.90;99.90;;;;;;5022876;28;20075;-58
2022/05/02 02:57:56;;;;;;;23.08;17.95;;;9.10;99.90;;;;;;5019930;28;20037;-57
2022/05/02 03:00:22;;;;;;;23.83;18.45;;;9.00;99.90;;;;;;5020416;28;20632;-58
2022/05/02 03:02:48;;;;;;;23.02;17.75;;;9.20;99.90;;;;;;5016751;28;20033;-58
2022/05/02 03:07:58;;;;;;;23.67;17.35;;;9.20;99.90;;;;;;5013895;28;20772;-58
2022/05/02 03:10:25;;;;;;;24.40;18.15;;;9.30;99.90;;;;;;5017122;28;20176;-58
2022/05/02 03:12:51;;;;;;;22.77;17.98;;;9.20;99.90;;;;;;5021153;28;20110;-58
2022/05/02 03:15:16;;;;;;;23.27;17.75;;;9.20;99.90;;;;;;5016107;28;20389;-59
2022/05/02 03:17:42;;;;;;;23.60;17.88;;;9.10;99.90;;;;;;5021693;28;20037;-59
2022/05/02 03:20:08;;;;;;;21.88;17.42;;;9.00;99.90;;;;;;5020027;28;20040;-58
2022/05/02 03:22:33;;;;;;;21.05;16.85;;;9.00;99.90;;;;;;5026274;28;20033;-58
2022/05/02 03:24:59;;;;;;;20.45;17.10;;;8.40;99.90;;;;;;5021401;28;20025;-59
2022/05/02 03:27:25;;;;;;;19.52;16.83;;;8.70;99.90;;;;;;5022468;28;20040;-58
2022/05/02 03:29:50;;;;;;;22.42;17.58;;;8.60;99.90;;;;;;5024856;28;20834;-58
2022/05/02 03:32:16;;;;;;;22.88;17.23;;;8.50;99.90;;;;;;5019795;28;20037;-58
2022/05/02 03:34:41;;;;;;;21.77;17.13;;;8.50;99.90;;;;;;5020489;28;20025;-59
2022/05/02 03:37:07;;;;;;;23.52;17.73;;;9.20;99.90;;;;;;5022377;28;20412;-58
2022/05/02 03:39:32;;;;;;;21.52;17.33;;;8.30;99.90;;;;;;5020850;28;20091;-58
2022/05/02 03:41:58;;;;;;;23.00;17.50;;;8.20;99.90;;;;;;5019811;28;20179;-59
2022/05/02 03:44:24;;;;;;;22.77;17.50;;;8.40;99.90;;;;;;5021735;28;20124;-58
2022/05/02 03:46:50;;;;;;;23.35;18.67;;;8.30;99.90;;;;;;5019707;28;20567;-60
2022/05/02 03:49:15;;;;;;;23.13;18.10;;;8.00;99.90;;;;;;5023820;28;20178;-58
2022/05/02 03:51:41;;;;;;;22.92;18.77;;;8.10;99.90;;;;;;5018292;28;20021;-58
2022/05/02 03:54:06;;;;;;;21.73;17.50;;;8.10;99.90;;;;;;5023517;28;21001;-58
2022/05/02 03:56:32;;;;;;;22.50;17.30;;;8.10;99.90;;;;;;5023059;28;20025;-59
2022/05/02 03:58:57;;;;;;;22.02;17.65;;;7.90;99.90;;;;;;5020545;28;20129;-60
2022/05/02 04:01:23;;;;;;;24.25;17.55;;;7.90;99.90;;;;;;5017156;28;20033;-59
2022/05/02 04:03:49;;;;;;;24.88;17.77;;;8.00;99.90;;;;;;5022486;28;20021;-58
2022/05/02 04:06:15;;;;;;;26.20;19.13;;;8.40;99.90;;;;;;5017712;28;20081;-58
2022/05/02 04:08:41;;;;;;;26.35;18.63;;;8.30;99.90;;;;;;5019448;28;20568;-59
2022/05/02 04:11:06;;;;;;;22.90;18.08;;;8.20;99.90;;;;;;5021190;28;20032;-58
2022/05/02 04:13:32;;;;;;;25.10;18.40;;;8.20;99.90;;;;;;5022162;28;20244;-58
2022/05/02 04:15:59;;;;;;;24.38;18.33;;;;;;;;;;5015214;28;20048;-58
2022/05/02 04:18:24;;;;;;;22.65;16.98;;;7.70;99.90;;;;;;5020291;28;20154;-58
2022/05/02 04:20:50;;;;;;;24.42;18.30;;;7.70;99.90;;;;;;5019479;28;20021;-58
2022/05/02 04:23:15;;;;;;;24.45;18.00;;;8.00;99.90;;;;;;5016591;28;20044;-58
2022/05/02 04:25:41;;;;;;;23.33;17.75;;;7.80;99.90;;;;;;5022362;28;20087;-58
2022/05/02 04:28:08;;;;;;;23.00;18.30;;;7.80;99.90;;;;;;5020315;28;21359;-58
2022/05/02 04:30:34;;;;;;;24.13;18.20;;;7.20;99.90;;;;;;5014326;28;20677;-58
2022/05/02 04:33:01;;;;;;;23.58;18.38;;;7.80;99.90;;;;;;5010674;28;20030;-58
2022/05/02 04:35:27;;;;;;;24.90;19.48;;;7.70;99.90;;;;;;5019318;28;20021;-58
2022/05/02 04:37:52;;;;;;;26.17;19.67;;;8.00;99.90;;;;;;5017309;28;21251;-60
2022/05/02 04:40:18;;;;;;;22.52;18.58;;;8.10;99.90;;;;;;5015895;28;20029;-58
2022/05/02 04:42:45;;;;;;;23.55;18.85;;;;;;;;;;5017752;28;20027;-59
2022/05/02 04:45:11;;;;;;;24.05;18.88;;;;;;;;;;5019070;28;20087;-58
2022/05/02 04:47:37;;;;;;;24.83;19.00;;;7.90;99.90;;;;;;5016379;28;20017;-59
2022/05/02 04:50:04;;;;;;;25.35;18.98;;;7.90;99.90;;;;;;5022599;28;20696;-59
2022/05/02 04:52:29;;;;;;;23.70;18.65;;;7.90;99.90;;;;;;5022386;28;20042;-58
2022/05/02 04:54:55;;;;;;;24.52;18.63;;;8.10;99.90;;;;;;5022935;28;20025;-58
2022/05/02 04:57:20;;;;;;;25.75;18.75;;;8.10;99.90;;;;;;5020836;28;20031;-57
2022/05/02 04:59:46;;;;;;;24.65;20.05;;;8.30;99.90;;;;;;5021666;28;20020;-60
2022/05/02 05:02:12;;;;;;;25.00;19.58;;;8.20;99.90;;;;;;5018195;28;20025;-59
2022/05/02 05:04:37;;;;;;;26.02;19.88;;;8.10;99.90;;;;;;5021190;28;20060;-58
2022/05/02 05:07:03;;;;;;;24.60;19.30;;;8.60;99.90;;;;;;5016796;28;20057;-57
2022/05/02 05:09:29;;;;;;;27.35;19.63;;;8.10;99.90;;;;;;5020582;28;20037;-58
2022/05/02 05:12:28;;;;;;;27.30;21.20;;;8.20;99.90;;;;;;5020797;28;20021;-57
2022/05/02 05:18:25;;;;;;;33.17;20.50;;;8.00;99.90;;;;;;5021003;28;20040;-57
2022/05/02 05:21:08;;;;;;;26.05;19.70;;;7.80;99.90;;;;;;5020347;28;20025;-59
2022/05/02 05:24:08;;;;;;;27.58;20.48;;;7.90;99.90;;;;;;5022713;28;20030;-58
2022/05/02 05:26:58;;;;;;;47.75;34.83;;;8.30;99.90;;;;;;5016658;28;20113;-58
2022/05/02 05:29:43;;;;;;;48.88;35.42;;;;;;;;;;5019993;28;20404;-57
2022/05/02 05:32:14;;;;;;;28.33;20.50;;;8.40;99.90;;;;;;5019413;28;20470;-57
2022/05/02 05:35:04;;;;;;;24.52;20.02;;;8.00;99.90;;;;;;5018607;28;20052;-59
2022/05/02 05:38:00;;;;;;;28.17;20.30;;;8.80;99.90;;;;;;5018087;28;20037;-58
2022/05/02 05:40:30;;;;;;;25.08;19.30;;;8.90;99.90;;;;;;5020874;28;20044;-58
2022/05/02 05:43:17;;;;;;;28.00;20.15;;;8.80;99.90;;;;;;5020743;28;20021;-59
2022/05/02 05:46:06;;;;;;;30.20;21.17;;;9.10;99.90;;;;;;5022196;28;20029;-57
2022/05/02 05:48:54;;;;;;;26.65;21.05;;;9.20;99.90;;;;;;5023882;28;20567;-57
2022/05/02 05:51:38;;;;;;;26.40;19.80;;;;;;;;;;5017262;28;20087;-58
2022/05/02 05:54:55;;;;;;;25.02;19.95;;;9.10;99.90;;;;;;5017834;28;20033;-57
2022/05/02 05:58:02;;;;;;;26.33;20.23;;;8.80;99.90;;;;;;5017472;28;20026;-59
2022/05/02 06:00:33;;;;;;;26.73;19.23;;;8.90;99.90;;;;;;5019542;28;20156;-58
2022/05/02 06:03:08;;;;;;;26.63;19.60;;;;;;;;;;5017565;28;20075;-58
2022/05/02 06:05:46;;;;;;;30.25;20.55;;;;;;;;;;5014941;28;20134;-58
2022/05/02 06:08:16;;;;;;;27.33;20.27;;;;;;;;;;5018920;28;20025;-58
2022/05/02 06:10:43;;;;;;;27.48;20.48;;;8.90;99.90;;;;;;5019749;28;20108;-59
2022/05/02 06:13:09;;;;;;;25.13;20.48;;;9.00;99.90;;;;;;5016123;28;20473;-59
2022/05/02 06:18:27;;;;;;;29.13;19.98;;;8.90;99.90;;;;;;5012622;28;20056;-57
2022/05/02 06:20:56;;;;;;;29.10;21.48;;;;;;;;;;5017043;28;20033;-58
2022/05/02 06:23:25;;;;;;;30.60;20.00;;;;;;;;;;5020263;28;20052;-58
2022/05/02 06:25:53;;;;;;;24.88;19.60;;;;;;;;;;5014590;28;20052;-57
2022/05/02 06:28:22;;;;;;;26.00;20.25;;;;;;;;;;5018196;28;20037;-57
2022/05/02 06:30:49;;;;;;;29.38;19.42;;;;;;;;;;5016862;28;20701;-59
2022/05/02 06:33:15;;;;;;;28.73;20.52;;;;;;;;;;5012580;28;20025;-58
2022/05/02 06:35:56;;;;;;;33.72;20.25;;;;;;;;;;5020887;28;20046;-59
2022/05/02 06:38:49;;;;;;;27.25;19.27;;;9.80;99.90;;;;;;5018185;28;20572;-57
2022/05/02 06:41:43;;;;;;;27.13;19.52;;;9.90;99.90;;;;;;5019746;28;20038;-57
2022/05/02 06:44:11;;;;;;;30.20;19.13;;;10.00;99.90;;;;;;5015468;28;20021;-58
2022/05/02 06:46:44;;;;;;;27.35;19.08;;;10.00;99.90;;;;;;5019077;28;20385;-59
2022/05/02 06:49:12;;;;;;;25.40;19.23;;;10.20;99.90;;;;;;5015319;28;20029;-58
2022/05/02 06:51:42;;;;;;;25.55;18.25;;;;;;;;;;5018374;28;20238;-57
2022/05/02 06:54:20;;;;;;;25.65;17.65;;;;;;;;;;5026527;28;20025;-58
2022/05/02 06:56:51;;;;;;;24.23;17.38;;;;;;;;;;5019609;28;20114;-58
2022/05/02 06:59:20;;;;;;;23.65;17.08;;;;;;;;;;5024237;28;20021;-58
2022/05/02 07:01:46;;;;;;;26.20;17.80;;;;;;;;;;5024866;28;20079;-58
2022/05/02 07:04:16;;;;;;;27.70;17.73;;;;;;;;;;5018750;28;20030;-57
2022/05/02 07:07:01;;;;;;;23.92;16.77;;;;;;;;;;5023024;28;20037;-59
2022/05/02 07:09:44;;;;;;;24.60;15.55;;;;;;;;;;5024875;28;20034;-58
2022/05/02 07:12:20;;;;;;;26.88;17.27;;;;;;;;;;5025420;28;20504;-57
2022/05/02 07:15:01;;;;;;;24.48;16.35;;;;;;;;;;5025574;28;20547;-57
2022/05/02 07:17:42;;;;;;;25.63;16.50;;;;;;;;;;5023700;28;20057;-57
2022/05/02 07:20:38;;;;;;;23.45;16.27;;;;;;;;;;5023436;28;20160;-57
2022/05/02 07:23:22;;;;;;;24.13;17.02;;;;;;;;;;5022186;28;20048;-57
2022/05/02 07:25:58;;;;;;;23.13;16.02;;;;;;;;;;5022953;28;20071;-58
2022/05/02 07:28:44;;;;;;;26.25;16.92;;;;;;;;;;5014756;28;20026;-59
2022/05/02 07:31:12;;;;;;;25.65;15.73;;;;;;;;;;5015735;28;20133;-58
2022/05/02 07:33:39;;;;;;;26.33;15.98;;;;;;;;;;5022114;28;20080;-58
2022/05/02 07:36:05;;;;;;;24.52;14.48;;;;;;;;;;5022756;28;20477;-58
2022/05/02 07:38:32;;;;;;;23.58;15.02;;;;;;;;;;5019881;28;20213;-57
2022/05/02 07:43:49;;;;;;;21.88;14.77;;;;;;;;;;5023380;28;20043;-58
2022/05/02 07:46:17;;;;;;;20.02;14.18;;;;;;;;;;5026139;28;20030;-58
2022/05/02 07:48:44;;;;;;;23.52;15.57;;;;;;;;;;5024957;28;20072;-58
2022/05/02 07:51:11;;;;;;;21.85;15.15;;;;;;;;;;5022412;28;20044;-57
2022/05/02 07:53:40;;;;;;;26.30;14.73;;;;;;;;;;5020926;28;20022;-59
2022/05/02 07:56:09;;;;;;;25.55;14.63;;;;;;;;;;5023137;28;20040;-57
2022/05/02 07:58:36;;;;;;;25.58;14.85;;;;;;;;;;5020688;28;20034;-58
2022/05/02 08:01:02;;;;;;;24.75;15.23;;;;;;;;;;5021079;28;20400;-58
2022/05/02 08:03:28;;;;;;;23.75;15.95;;;;;;;;;;5020131;28;20110;-57
2022/05/02 08:05:58;;;;;;;26.25;15.15;;;;;;;;;;5023217;28;20033;-57
2022/05/02 08:08:32;;;;;;;20.38;14.68;;;;;;;;;;5022976;28;20128;-57
2022/05/02 08:11:05;;;;;;;25.88;14.65;;;;;;;;;;5020431;28;20029;-59
2022/05/02 08:13:39;;;;;;;22.77;14.30;;;;;;;;;;5017405;28;20446;-58
2022/05/02 08:16:08;;;;;;;24.10;13.25;;;;;;;;;;5020883;28;20026;-57
2022/05/02 08:18:34;;;;;;;17.80;13.30;;;;;;;;;;5016432;28;20401;-58
2022/05/02 08:21:10;;;;;;;23.15;12.93;;;;;;;;;;5020268;28;20038;-57
2022/05/02 08:29:34;;;;;;;22.02;12.95;;;;;;;;;;5015452;28;20104;-57
2022/05/02 08:32:10;;;;;;;18.92;13.10;;;;;;;;;;5021514;28;20025;-59
2022/05/02 08:34:39;;;;;;;20.77;13.23;;;;;;;;;;5020352;28;20025;-59
2022/05/02 08:37:24;;;;;;;22.80;13.20;;;;;;;;;;5016234;28;20137;-58
2022/05/02 08:40:05;;;;;;;25.67;13.73;;;;;;;;;;5014841;28;20053;-57
2022/05/02 08:42:41;;;;;;;23.08;13.00;;;;;;;;;;5010053;28;20049;-58
2022/05/02 08:45:07;;;;;;;25.27;12.60;;;;;;;;;;5015894;28;22167;-58
2022/05/02 08:47:33;;;;;;;24.75;13.77;;;;;;;;;;5015246;28;20033;-57
2022/05/02 08:50:17;;;;;;;24.00;13.30;;;;;;;;;;5020658;28;20036;-59
2022/05/02 08:52:43;;;;;;;22.00;13.02;;;;;;;;;;5014956;28;20407;-59
2022/05/02 08:55:09;;;;;;;18.85;12.65;;;;;;;;;;5024313;28;20037;-59
2022/05/02 08:57:41;;;;;;;20.85;12.98;;;;;;;;;;5018651;28;20615;-57
2022/05/02 09:00:12;;;;;;;16.67;11.55;;;;;;;;;;5022125;28;20119;-59
2022/05/02 09:02:56;;;;;;;19.77;11.73;;;;;;;;;;5023326;28;20497;-59
2022/05/02 09:05:40;;;;;;;17.98;12.23;;;;;;;;;;5015151;28;20674;-59
2022/05/02 09:08:08;;;;;;;;;;;;;;;;;;5023158;28;20056;-58
2022/05/02 09:10:45;;;;;;;17.90;11.23;;;;;;;;;;5018921;28;19936;-58
2022/05/02 09:13:11;;;;;;;19.25;11.48;;;;;;;;;;5020195;28;20374;-58
2022/05/02 09:15:47;;;;;;;15.60;11.23;;;;;;;;;;5019070;28;20043;-58
2022/05/02 09:18:13;;;;;;;18.63;10.57;;;;;;;;;;5025803;28;20232;-59
2022/05/02 09:20:42;;;;;;;18.08;10.98;;;;;;;;;;5019588;28;20052;-58
2022/05/02 09:23:27;;;;;;;15.80;10.73;;;;;;;;;;5021149;28;20064;-59
2022/05/02 09:26:12;;;;;;;26.58;11.73;;;;;;;;;;5022912;28;20344;-58
2022/05/02 09:28:49;;;;;;;19.73;10.48;;;;;;;;;;5021560;28;20119;-59
2022/05/02 09:31:19;;;;;;;18.15;10.50;;;;;;;;;;5019126;28;20033;-59
2022/05/02 09:34:04;;;;;;;15.52;10.20;;;;;;;;;;5022646;28;20045;-58
2022/05/02 09:36:31;;;;;;;13.35;9.63;;;;;;;;;;5022314;28;20056;-58
2022/05/02 09:38:57;;;;;;;17.27;10.30;;;;;;;;;;5023009;28;20090;-57
2022/05/02 09:41:43;;;;;;;13.68;9.60;;;;;;;;;;5024679;28;20115;-59
2022/05/02 09:50:11;;;;;;;17.02;10.02;;;;;;;;;;5021570;28;20567;-59
2022/05/02 09:53:02;;;;;;;15.00;8.98;;;;;;;;;;5022741;28;20493;-58
2022/05/02 09:58:32;;;;;;;12.95;8.43;;;;;;;;;;5020341;28;20101;-58
2022/05/02 10:01:07;;;;;;;14.10;9.18;;;;;;;;;;5014739;28;20083;-59
2022/05/02 10:03:35;;;;;;;12.60;8.60;;;;;;;;;;5021726;28;20030;-58
2022/05/02 10:06:06;;;;;;;13.05;8.90;;;;;;;;;;5020348;28;20067;-57
2022/05/02 10:08:45;;;;;;;14.00;8.82;;;;;;;;;;5021812;28;20227;-58
2022/05/02 10:11:29;;;;;;;17.10;9.32;;;;;;;;;;5022154;28;20018;-57
2022/05/02 10:14:14;;;;;;;16.58;9.07;;;;;;;;;;5018943;28;20105;-59
2022/05/02 10:16:40;;;;;;;12.95;8.98;;;;;;;;;;5019233;28;20117;-59
2022/05/02 10:19:10;;;;;;;17.02;9.13;;;;;;;;;;5022230;28;20610;-59
2022/05/02 10:21:42;;;;;;;13.60;9.43;;;;;;;;;;5020331;28;20040;-58
2022/05/02 10:24:31;;;;;;;15.15;9.18;;;;;;;;;;5023054;28;20118;-59
2022/05/02 10:27:16;;;;;;;18.55;9.70;;;;;;;;;;5027108;28;20057;-58
2022/05/02 10:29:57;;;;;;;16.35;9.50;;;;;;;;;;5023359;28;20029;-58
2022/05/02 10:32:27;;;;;;;11.32;9.25;;;;;;;;;;5024690;28;20034;-58
2022/05/02 10:34:55;;;;;;;14.45;8.85;;;;;;;;;;5027721;28;20108;-58
2022/05/02 10:37:31;;;;;;;16.73;9.63;;;;;;;;;;5024777;28;20142;-58
2022/05/02 10:40:07;;;;;;;13.23;9.55;;;;;;;;;;5023327;28;20053;-59
2022/05/02 10:42:34;;;;;;;14.82;9.80;;;;;;;;;;5026122;28;20018;-59
2022/05/02 10:45:07;;;;;;;17.23;10.55;;;;;;;;;;5026076;28;20030;-59
2022/05/02 10:47:39;;;;;;;16.83;9.75;;;;;;;;;;5017499;28;20489;-59
2022/05/02 10:50:05;;;;;;;18.15;10.15;;;;;;;;;;5026262;28;20644;-57
2022/05/02 10:52:37;;;;;;;16.25;9.60;;;;;;;;;;5025926;28;20018;-56
2022/05/02 10:55:07;;;;;;;17.38;10.80;;;;;;;;;;5024583;28;20080;-58
2022/05/02 10:57:46;;;;;;;18.05;10.60;;;;;;;;;;5026307;28;20022;-58
2022/05/02 11:00:12;;;;;;;15.82;10.35;;;;;;;;;;5024729;28;20083;-58
2022/05/02 11:02:57;;;;;;;17.55;10.43;;;;;;;;;;5026478;28;20152;-59
2022/05/02 11:05:28;;;;;;;16.08;10.02;;;;;;;;;;5027111;28;20346;-59
2022/05/02 11:07:55;;;;;;;15.57;10.55;;;;;;;;;;5024960;28;20358;-59
2022/05/02 11:10:27;;;;;;;15.75;10.73;;;;;;;;;;5018978;28;20034;-58
2022/05/02 11:13:18;;;;;;;16.55;10.65;;;;;;;;;;5025143;28;20048;-58
2022/05/02 11:15:44;;;;;;;15.00;10.77;;;;;;;;;;5024289;28;20091;-57
2022/05/02 11:20:41;;;;;;;12.32;9.60;;;;;;;;;;5023909;28;20096;-58
2022/05/02 11:21:13;;;;;;;15.63;10.88;;;;;;;;;;5020806;28;20025;-60
2022/05/02 11:23:42;;;;;;;15.40;9.73;;;;;;;;;;5023244;28;20021;-58
2022/05/02 11:26:13;;;;;;;16.92;10.23;;;;;;;;;;5020905;28;20030;-59
2022/05/02 11:28:55;;;;;;;15.50;9.63;;;;;;;;;;5024712;28;20029;-59
2022/05/02 11:31:36;;;;;;;15.52;9.70;;;;;;;;;;5024356;28;20342;-59
2022/05/02 11:34:25;;;;;;;17.27;10.02;;;;;;;;;;5020760;28;20043;-58
2022/05/02 11:36:57;;;;;;;13.70;10.18;;;;;;;;;;5020807;28;20103;-58
2022/05/02 11:39:41;;;;;;;14.25;10.35;;;;;;;;;;5020607;28;20030;-59
2022/05/02 11:42:09;;;;;;;16.25;11.50;;;;;;;;;;5023414;28;20033;-58
2022/05/02 11:44:45;;;;;;;19.45;11.35;;;;;;;;;;5024924;28;20048;-58
2022/05/02 11:47:27;;;;;;;15.32;9.88;;;;;;;;;;5022225;28;20481;-59
2022/05/02 11:49:58;;;;;;;14.25;9.80;;;;;;;;;;5024616;28;20033;-59
2022/05/02 11:52:31;;;;;;;12.00;10.45;;;;;;;;;;5026297;28;20061;-58
2022/05/02 11:54:57;;;;;;;;;;;;;;;;;;5023550;28;20576;-58
2022/05/02 11:57:37;;;;;;;15.82;9.77;;;;;;;;;;5021859;28;19954;-59
2022/05/02 12:00:11;;;;;;;14.80;9.10;;;;;;;;;;5024877;28;20030;-58
2022/05/02 12:02:37;;;;;;;17.05;10.30;;;;;;;;;;5023437;28;20133;-59
2022/05/02 12:05:05;;;;;;;15.50;9.50;;;;;;;;;;5021756;28;20056;-59
2022/05/02 12:07:32;;;;;;;12.68;10.50;;;;;;;;;;5024611;28;20029;-59
2022/05/02 12:10:03;;;;;;;15.45;10.20;;;;;;;;;;5022941;28;20036;-59
2022/05/02 12:12:31;;;;;;;14.13;10.48;;;;;;;;;;5024937;28;20025;-59
2022/05/02 12:15:01;;;;;;;15.50;10.25;;;;;;;;;;5024781;28;20385;-59
2022/05/02 12:17:27;;;;;;;15.32;10.57;;;;;;;;;;5022008;28;20040;-58
2022/05/02 12:19:52;;;;;;;17.48;10.50;;;;;;;;;;5024075;28;20037;-60
2022/05/02 12:22:22;;;;;;;15.25;12.93;;;;;;;;;;5024275;28;20026;-59
2022/05/02 12:24:49;;;;;;;14.55;10.85;;;;;;;;;;5025247;28;20116;-60
2022/05/02 12:27:15;;;;;;;12.00;9.40;;;;;;;;;;5021185;28;20489;-59
2022/05/02 12:29:43;;;;;;;13.68;10.35;;;;;;;;;;5025127;28;20072;-59
2022/05/02 12:32:10;;;;;;;15.35;10.15;;;;;;;;;;5023186;28;20080;-59
2022/05/02 12:34:37;;;;;;;16.15;10.85;;;;;;;;;;5021348;28;20658;-59
2022/05/02 12:37:20;;;;;;;18.48;11.40;;;;;;;;;;5019592;28;20029;-59
2022/05/02 12:40:07;;;;;;;13.73;9.73;;;;;;;;;;5016859;28;20353;-58
2022/05/02 12:42:41;;;;;;;14.10;10.00;;;;;;;;;;5019295;28;20478;-58
2022/05/02 12:45:11;;;;;;;14.18;9.77;;;;;;;;;;5024211;28;20400;-59
2022/05/02 12:47:41;;;;;;;15.38;9.30;;;;;;;;;;5021064;28;20488;-58
2022/05/02 12:50:17;;;;;;;12.50;9.88;;;;;;;;;;5021191;28;20973;-59
2022/05/02 12:52:47;;;;;;;18.45;9.23;;;;;;;;;;5025208;28;20553;-58
2022/05/02 12:55:14;;;;;;;13.52;10.88;;;;;;;;;;5021068;28;20025;-58
2022/05/02 13:00:36;;;;;;;14.52;10.55;;;;;;;;;;5018575;28;20575;-58
2022/05/02 13:03:23;;;;;;;16.67;10.10;;;;;;;;;;5022113;28;20033;-60
2022/05/02 13:05:54;;;;;;;15.98;10.25;;;;;;;;;;5021521;28;20029;-59
2022/05/02 13:08:28;;;;;;;15.32;10.98;;;;;;;;;;5024611;28;20037;-59
2022/05/02 13:11:02;;;;;;;11.75;10.02;;;;;;;;;;5024131;28;20032;-59
2022/05/02 13:13:28;;;;;;;;;;;;;;;;;;5021839;28;20029;-58
2022/05/02 13:15:54;;;;;;;11.38;8.48;;;;;;;;;;5015819;28;19923;-60
2022/05/02 13:18:20;;;;;;;11.45;9.60;;;;;;;;;;5015184;28;20704;-57
2022/05/02 13:21:03;;;;;;;14.15;9.10;;;;;;;;;;5022738;28;20476;-58
2022/05/02 13:23:44;;;;;;;17.10;10.00;;;;;;;;;;5021497;28;20484;-60
2022/05/02 13:26:26;;;;;;;13.48;10.45;;;;;;;;;;5021477;28;20025;-58
2022/05/02 13:29:01;;;;;;;20.23;9.90;;;;;;;;;;5019927;28;20035;-59
2022/05/02 13:31:38;;;;;;;11.40;9.05;;;;;;;;;;5021739;28;20061;-58
2022/05/02 13:34:05;;;;;;;14.63;9.40;;;;;;;;;;5020640;28;20080;-59
2022/05/02 13:36:44;;;;;;;13.65;9.32;;;;;;;;;;5020621;28;20029;-58
2022/05/02 13:39:20;;;;;;;18.25;11.50;;;;;;;;;;5012440;28;20059;-59
2022/05/02 13:41:54;;;;;;;10.60;7.85;;;;;;;;;;5016930;28;20579;-59
2022/05/02 13:44:32;;;;;;;10.90;8.55;;;;;;;;;;5015755;28;20038;-59
2022/05/02 13:47:03;;;;;;;15.48;8.82;;;;;;;;;;5023446;28;20039;-60
2022/05/02 13:49:46;;;;;;;13.02;8.93;;;;;;;;;;5019365;28;20017;-58
2022/05/02 13:52:46;;;;;;;12.20;9.30;;;;;;;;;;5015264;28;20109;-59
2022/05/02 13:55:15;;;;;;;11.68;8.77;;;;;;;;;;5031561;28;20029;-58
2022/05/02 13:57:46;;;;;;;10.27;8.20;;;;;;;;;;5021811;28;20021;-58
2022/05/02 14:03:17;;;;;;;11.30;8.20;;;;;;;;;;5016986;28;20120;-59
2022/05/02 14:05:55;;;;;;;12.35;7.80;;;;;;;;;;5017542;28;20433;-59
2022/05/02 14:08:38;;;;;;;9.65;8.48;;;;;;;;;;5019700;28;20057;-59
2022/05/02 14:11:05;;;;;;;12.18;7.70;;;;;;;;;;5015474;28;20025;-59
2022/05/02 14:13:31;;;;;;;11.02;7.55;;;;;;;;;;5015851;28;20022;-60
2022/05/02 14:16:07;;;;;;;11.18;8.38;;;;;;;;;;5013037;28;20041;-59
2022/05/02 14:19:08;;;;;;;11.48;8.13;;;;;;;;;;5020320;28;20465;-59
2022/05/02 14:21:38;;;;;;;10.88;7.07;;;;;;;;;;5012409;28;20046;-59
2022/05/02 14:24:04;;;;;;;12.32;8.40;;;;;;;;;;5021566;28;20535;-60
2022/05/02 14:26:30;;;;;;;16.27;9.00;;;;;;;;;;5021920;28;20099;-59
2022/05/02 14:28:58;;;;;;;12.25;7.65;;;;;;;;;;5020113;28;20396;-60
2022/05/02 14:31:39;;;;;;;11.48;7.75;;;;;;;;;;5022970;28;20033;-58
2022/05/02 14:34:10;;;;;;;12.48;7.93;;;;;;;;;;5019683;28;20025;-59
2022/05/02 14:36:37;;;;;;;11.80;8.07;;;;;;;;;;5023588;28;20109;-58
2022/05/02 14:39:06;;;;;;;14.05;8.57;;;;;;;;;;5022741;28;20036;-60
2022/05/02 14:41:38;;;;;;;10.30;8.30;;;;;;;;;;5019645;28;20146;-60
2022/05/02 14:44:07;;;;;;;9.88;8.07;;;;;;;;;;5020256;28;20175;-59
2022/05/02 14:46:35;;;;;;;10.88;7.80;;;;;;;;;;5021390;28;20030;-60
2022/05/02 14:49:01;;;;;;;10.77;7.10;;;;;;;;;;5020472;28;20586;-59
2022/05/02 14:51:30;;;;;;;10.70;7.65;;;;;;;;;;5020335;28;20397;-60
2022/05/02 14:53:57;;;;;;;13.88;8.55;;;;;;;;;;5019442;28;20036;-59